sensor_id;sensor_type;location;lat;lon;timestamp;temperature;humidity
29413;DHT22;16389;50.126;8.450;2022-12-18T00:01:22;-6.90;99.90
29413;DHT22;16389;50.126;8.450;2022-12-18T00:03:50;-7.00;99.90
29413;DHT22;16389;50.126;8.450;2022-12-18T00:06:16;-6.90;99.90
29413;DHT22;16389;50.126;8.450;2022-12-18T00:08:43;-7.00;99.90
29413;DHT22;16389;50.126;8.450;2022-12-18T00:11:16;-7.00;99.90
29413;DHT22;16389;50.126;8.450;2022-12-18T00:13:43;-7.00;99.90
29413;DHT22;16389;50.126;8.450;2022-12-18T00:16:10;-7.00;99.90
29413;DHT22;16389;50.126;8.450;2022-12-18T00:18:36;-7.10;99.90
29413;DHT22;16389;50.126;8.450;2022-12-18T00:21:05;-7.00;99.90
29413;DHT22;16389;50.126;8.450;2022-12-18T00:23:31;-7.10;99.90
29413;DHT22;16389;50.126;8.450;2022-12-18T00:26:02;-7.20;99.90
29413;DHT22;16389;50.126;8.450;2022-12-18T00:28:28;-7.30;99.90
29413;DHT22;16389;50.126;8.450;2022-12-18T00:31:04;-7.30;99.90
29413;DHT22;16389;50.126;8.450;2022-12-18T00:33:31;-7.30;99.90
29413;DHT22;16389;50.126;8.450;2022-12-18T00:36:09;-7.30;99.90
29413;DHT22;16389;50.126;8.450;2022-12-18T00:38:35;-7.40;99.90
29413;DHT22;16389;50.126;8.450;2022-12-18T00:41:01;-7.40;99.90
29413;DHT22;16389;50.126;8.450;2022-12-18T00:43:27;-7.40;99.90
29413;DHT22;16389;50.126;8.450;2022-12-18T00:45:53;-7.40;99.90
29413;DHT22;16389;50.126;8.450;2022-12-18T00:48:19;-7.40;99.90
29413;DHT22;16389;50.126;8.450;2022-12-18T00:50:44;-7.40;99.90
29413;DHT22;16389;50.126;8.450;2022-12-18T00:53:10;-7.40;99.90
29413;DHT22;16389;50.126;8.450;2022-12-18T00:55:38;-7.30;99.90
29413;DHT22;16389;50.126;8.450;2022-12-18T00:58:04;-7.30;99.90
29413;DHT22;16389;50.126;8.450;2022-12-18T01:00:29;-7.30;99.90
29413;DHT22;16389;50.126;8.450;2022-12-18T01:02:55;-7.30;99.90
29413;DHT22;16389;50.126;8.450;2022-12-18T01:05:21;-7.30;99.90
29413;DHT22;16389;50.126;8.450;2022-12-18T01:07:46;-7.30;99.90
29413;DHT22;16389;50.126;8.450;2022-12-18T01:10:13;-7.30;99.90
29413;DHT22;16389;50.126;8.450;2022-12-18T01:12:39;-7.40;99.90
29413;DHT22;16389;50.126;8.450;2022-12-18T01:15:13;-7.30;99.90
29413;DHT22;16389;50.126;8.450;2022-12-18T01:17:39;-7.40;99.90
29413;DHT22;16389;50.126;8.450;2022-12-18T01:20:05;-7.30;99.90
29413;DHT22;16389;50.126;8.450;2022-12-18T01:22:35;-7.40;99.90
29413;DHT22;16389;50.126;8.450;2022-12-18T01:25:01;-7.40;99.90
29413;DHT22;16389;50.126;8.450;2022-12-18T01:27:27;-7.40;99.90
29413;DHT22;16389;50.126;8.450;2022-12-18T01:29:52;-7.40;99.90
29413;DHT22;16389;50.126;8.450;2022-12-18T01:32:18;-7.40;99.90
29413;DHT22;16389;50.126;8.450;2022-12-18T01:34:44;-7.30;99.90
29413;DHT22;16389;50.126;8.450;2022-12-18T01:37:10;-7.20;99.90
29413;DHT22;16389;50.126;8.450;2022-12-18T01:39:36;-7.10;99.90
29413;DHT22;16389;50.126;8.450;2022-12-18T01:42:12;-7.00;99.90
29413;DHT22;16389;50.126;8.450;2022-12-18T01:44:54;-6.90;99.90
29413;DHT22;16389;50.126;8.450;2022-12-18T01:50:39;-6.90;99.90
29413;DHT22;16389;50.126;8.450;2022-12-18T01:53:15;-7.00;99.90
29413;DHT22;16389;50.126;8.450;2022-12-18T01:55:58;-7.00;99.90
29413;DHT22;16389;50.126;8.450;2022-12-18T02:00:55;-7.10;99.90
29413;DHT22;16389;50.126;8.450;2022-12-18T02:03:21;-7.10;99.90
29413;DHT22;16389;50.126;8.450;2022-12-18T02:10:55;-7.20;99.90
29413;DHT22;16389;50.126;8.450;2022-12-18T02:13:31;-7.30;99.90
29413;DHT22;16389;50.126;8.450;2022-12-18T02:18:48;-7.30;99.90
29413;DHT22;16389;50.126;8.450;2022-12-18T02:26:51;-7.30;99.90
29413;DHT22;16389;50.126;8.450;2022-12-18T02:29:24;-7.30;99.90
29413;DHT22;16389;50.126;8.450;2022-12-18T02:32:04;-7.30;99.90
29413;DHT22;16389;50.126;8.450;2022-12-18T02:34:33;-7.20;99.90
29413;DHT22;16389;50.126;8.450;2022-12-18T02:37:03;-7.20;99.90
29413;DHT22;16389;50.126;8.450;2022-12-18T02:39:31;-7.10;99.90
29413;DHT22;16389;50.126;8.450;2022-12-18T02:41:58;-7.00;99.90
29413;DHT22;16389;50.126;8.450;2022-12-18T02:44:24;-7.10;99.90
29413;DHT22;16389;50.126;8.450;2022-12-18T02:46:52;-7.00;99.90
29413;DHT22;16389;50.126;8.450;2022-12-18T02:49:57;-7.10;99.90
29413;DHT22;16389;50.126;8.450;2022-12-18T03:00:33;-7.20;99.90
29413;DHT22;16389;50.126;8.450;2022-12-18T03:03:39;-7.10;99.90
29413;DHT22;16389;50.126;8.450;2022-12-18T03:06:12;-7.20;99.90
29413;DHT22;16389;50.126;8.450;2022-12-18T03:08:46;-7.30;99.90
29413;DHT22;16389;50.126;8.450;2022-12-18T03:11:14;-7.20;99.90
29413;DHT22;16389;50.126;8.450;2022-12-18T03:13:46;-7.20;99.90
29413;DHT22;16389;50.126;8.450;2022-12-18T03:16:27;-7.20;99.90
29413;DHT22;16389;50.126;8.450;2022-12-18T03:19:11;-7.10;99.90
29413;DHT22;16389;50.126;8.450;2022-12-18T03:21:45;-7.20;99.90
29413;DHT22;16389;50.126;8.450;2022-12-18T03:24:12;-7.10;99.90
29413;DHT22;16389;50.126;8.450;2022-12-18T03:26:43;-7.10;99.90
29413;DHT22;16389;50.126;8.450;2022-12-18T03:29:10;-7.10;99.90
29413;DHT22;16389;50.126;8.450;2022-12-18T03:31:40;-7.10;99.90
29413;DHT22;16389;50.126;8.450;2022-12-18T03:34:13;-7.00;99.90
29413;DHT22;16389;50.126;8.450;2022-12-18T03:36:40;-7.10;99.90
29413;DHT22;16389;50.126;8.450;2022-12-18T03:39:05;-7.10;99.90
29413;DHT22;16389;50.126;8.450;2022-12-18T03:44:28;-7.20;99.90
29413;DHT22;16389;50.126;8.450;2022-12-18T03:47:16;-7.20;99.90
29413;DHT22;16389;50.126;8.450;2022-12-18T03:49:52;-7.10;99.90
29413;DHT22;16389;50.126;8.450;2022-12-18T03:52:28;-7.10;99.90
29413;DHT22;16389;50.126;8.450;2022-12-18T03:54:57;-7.10;99.90
29413;DHT22;16389;50.126;8.450;2022-12-18T03:57:25;-7.10;99.90
29413;DHT22;16389;50.126;8.450;2022-12-18T03:59:57;-7.10;99.90
29413;DHT22;16389;50.126;8.450;2022-12-18T04:02:25;-7.10;99.90
29413;DHT22;16389;50.126;8.450;2022-12-18T04:04:56;-7.10;99.90
29413;DHT22;16389;50.126;8.450;2022-12-18T04:07:23;-7.20;99.90
29413;DHT22;16389;50.126;8.450;2022-12-18T04:09:50;-7.20;99.90
29413;DHT22;16389;50.126;8.450;2022-12-18T04:12:18;-7.20;99.90
29413;DHT22;16389;50.126;8.450;2022-12-18T04:14:43;-7.10;99.90
29413;DHT22;16389;50.126;8.450;2022-12-18T04:17:10;-7.20;99.90
29413;DHT22;16389;50.126;8.450;2022-12-18T04:19:35;-7.20;99.90
29413;DHT22;16389;50.126;8.450;2022-12-18T04:22:01;-7.10;99.90
29413;DHT22;16389;50.126;8.450;2022-12-18T04:24:26;-7.20;99.90
29413;DHT22;16389;50.126;8.450;2022-12-18T04:26:52;-7.20;99.90
29413;DHT22;16389;50.126;8.450;2022-12-18T04:29:18;-7.20;99.90
29413;DHT22;16389;50.126;8.450;2022-12-18T04:31:43;-7.20;99.90
29413;DHT22;16389;50.126;8.450;2022-12-18T04:34:09;-7.20;99.90
29413;DHT22;16389;50.126;8.450;2022-12-18T04:36:34;-7.10;99.90
29413;DHT22;16389;50.126;8.450;2022-12-18T04:39:00;-7.10;99.90
29413;DHT22;16389;50.126;8.450;2022-12-18T04:41:25;-7.10;99.90
29413;DHT22;16389;50.126;8.450;2022-12-18T04:43:51;-7.10;99.90
29413;DHT22;16389;50.126;8.450;2022-12-18T04:46:17;-7.10;99.90
29413;DHT22;16389;50.126;8.450;2022-12-18T04:48:45;-7.20;99.90
29413;DHT22;16389;50.126;8.450;2022-12-18T04:51:12;-7.10;99.90
29413;DHT22;16389;50.126;8.450;2022-12-18T04:53:38;-7.20;99.90
29413;DHT22;16389;50.126;8.450;2022-12-18T04:56:12;-7.10;99.90
29413;DHT22;16389;50.126;8.450;2022-12-18T04:58:40;-7.10;99.90
29413;DHT22;16389;50.126;8.450;2022-12-18T05:01:06;-7.10;99.90
29413;DHT22;16389;50.126;8.450;2022-12-18T05:03:33;-7.00;99.90
29413;DHT22;16389;50.126;8.450;2022-12-18T05:05:58;-6.90;99.90
29413;DHT22;16389;50.126;8.450;2022-12-18T05:08:24;-6.90;99.90
29413;DHT22;16389;50.126;8.450;2022-12-18T05:11:08;-7.00;99.90
29413;DHT22;16389;50.126;8.450;2022-12-18T05:13:35;-7.00;99.90
29413;DHT22;16389;50.126;8.450;2022-12-18T05:16:02;-7.00;99.90
29413;DHT22;16389;50.126;8.450;2022-12-18T05:18:27;-7.00;99.90
29413;DHT22;16389;50.126;8.450;2022-12-18T05:20:54;-7.00;99.90
29413;DHT22;16389;50.126;8.450;2022-12-18T05:23:21;-7.10;99.90
29413;DHT22;16389;50.126;8.450;2022-12-18T05:26:01;-7.10;99.90
29413;DHT22;16389;50.126;8.450;2022-12-18T05:28:27;-7.10;99.90
29413;DHT22;16389;50.126;8.450;2022-12-18T05:30:55;-7.10;99.90
29413;DHT22;16389;50.126;8.450;2022-12-18T05:33:22;-7.10;99.90
29413;DHT22;16389;50.126;8.450;2022-12-18T05:35:52;-7.10;99.90
29413;DHT22;16389;50.126;8.450;2022-12-18T05:38:18;-7.20;99.90
29413;DHT22;16389;50.126;8.450;2022-12-18T05:40:44;-7.10;99.90
29413;DHT22;16389;50.126;8.450;2022-12-18T05:43:10;-7.10;99.90
29413;DHT22;16389;50.126;8.450;2022-12-18T05:45:39;-7.10;99.90
29413;DHT22;16389;50.126;8.450;2022-12-18T05:48:05;-7.00;99.90
29413;DHT22;16389;50.126;8.450;2022-12-18T05:50:30;-7.00;99.90
29413;DHT22;16389;50.126;8.450;2022-12-18T05:52:58;-7.00;99.90
29413;DHT22;16389;50.126;8.450;2022-12-18T05:55:24;-6.90;99.90
29413;DHT22;16389;50.126;8.450;2022-12-18T05:57:49;-6.90;99.90
29413;DHT22;16389;50.126;8.450;2022-12-18T06:00:15;-6.90;99.90
29413;DHT22;16389;50.126;8.450;2022-12-18T06:02:41;-6.90;99.90
29413;DHT22;16389;50.126;8.450;2022-12-18T06:05:07;-6.80;99.90
29413;DHT22;16389;50.126;8.450;2022-12-18T06:07:32;-6.90;99.90
29413;DHT22;16389;50.126;8.450;2022-12-18T06:09:58;-6.80;99.90
29413;DHT22;16389;50.126;8.450;2022-12-18T06:12:23;-6.80;99.90
29413;DHT22;16389;50.126;8.450;2022-12-18T06:14:49;-6.70;99.90
29413;DHT22;16389;50.126;8.450;2022-12-18T06:17:14;-6.60;99.90
29413;DHT22;16389;50.126;8.450;2022-12-18T06:19:40;-6.70;99.90
29413;DHT22;16389;50.126;8.450;2022-12-18T06:22:06;-6.70;99.90
29413;DHT22;16389;50.126;8.450;2022-12-18T06:24:31;-6.80;99.90
29413;DHT22;16389;50.126;8.450;2022-12-18T06:26:58;-6.80;99.90
29413;DHT22;16389;50.126;8.450;2022-12-18T06:29:24;-6.90;99.90
29413;DHT22;16389;50.126;8.450;2022-12-18T06:31:49;-6.90;99.90
29413;DHT22;16389;50.126;8.450;2022-12-18T06:34:15;-6.90;99.90
29413;DHT22;16389;50.126;8.450;2022-12-18T06:36:40;-6.70;99.90
29413;DHT22;16389;50.126;8.450;2022-12-18T06:39:06;-6.70;99.90
29413;DHT22;16389;50.126;8.450;2022-12-18T06:41:31;-6.50;99.90
29413;DHT22;16389;50.126;8.450;2022-12-18T06:43:57;-6.50;99.90
29413;DHT22;16389;50.126;8.450;2022-12-18T06:46:23;-6.50;99.90
29413;DHT22;16389;50.126;8.450;2022-12-18T06:48:49;-6.50;99.90
29413;DHT22;16389;50.126;8.450;2022-12-18T06:51:17;-6.60;99.90
29413;DHT22;16389;50.126;8.450;2022-12-18T06:53:42;-6.50;99.90
29413;DHT22;16389;50.126;8.450;2022-12-18T06:56:08;-6.50;99.90
29413;DHT22;16389;50.126;8.450;2022-12-18T06:58:33;-6.60;99.90
29413;DHT22;16389;50.126;8.450;2022-12-18T07:01:04;-6.70;99.90
29413;DHT22;16389;50.126;8.450;2022-12-18T07:03:30;-6.70;99.90
29413;DHT22;16389;50.126;8.450;2022-12-18T07:05:56;-6.70;99.90
29413;DHT22;16389;50.126;8.450;2022-12-18T07:08:21;-6.80;99.90
29413;DHT22;16389;50.126;8.450;2022-12-18T07:10:47;-6.70;99.90
29413;DHT22;16389;50.126;8.450;2022-12-18T07:13:15;-6.80;99.90
29413;DHT22;16389;50.126;8.450;2022-12-18T07:15:41;-6.80;99.90
29413;DHT22;16389;50.126;8.450;2022-12-18T07:18:06;-6.80;99.90
29413;DHT22;16389;50.126;8.450;2022-12-18T07:20:32;-6.80;99.90
29413;DHT22;16389;50.126;8.450;2022-12-18T07:22:57;-6.90;99.90
29413;DHT22;16389;50.126;8.450;2022-12-18T07:25:23;-6.90;99.90
29413;DHT22;16389;50.126;8.450;2022-12-18T07:27:48;-6.80;99.90
29413;DHT22;16389;50.126;8.450;2022-12-18T07:30:14;-6.80;99.90
29413;DHT22;16389;50.126;8.450;2022-12-18T07:32:40;-6.80;99.90
29413;DHT22;16389;50.126;8.450;2022-12-18T07:35:05;-6.70;99.90
29413;DHT22;16389;50.126;8.450;2022-12-18T07:37:31;-6.70;99.90
29413;DHT22;16389;50.126;8.450;2022-12-18T07:39:57;-6.50;99.90
29413;DHT22;16389;50.126;8.450;2022-12-18T07:42:22;-6.60;99.90
29413;DHT22;16389;50.126;8.450;2022-12-18T07:44:58;-6.60;99.90
29413;DHT22;16389;50.126;8.450;2022-12-18T07:47:24;-6.50;99.90
29413;DHT22;16389;50.126;8.450;2022-12-18T07:49:49;-6.50;99.90
29413;DHT22;16389;50.126;8.450;2022-12-18T07:52:15;-6.50;99.90
29413;DHT22;16389;50.126;8.450;2022-12-18T07:54:41;-6.50;99.90
29413;DHT22;16389;50.126;8.450;2022-12-18T07:57:07;-6.50;99.90
29413;DHT22;16389;50.126;8.450;2022-12-18T07:59:33;-6.50;99.90
29413;DHT22;16389;50.126;8.450;2022-12-18T08:01:58;-6.50;99.90
29413;DHT22;16389;50.126;8.450;2022-12-18T08:04:24;-6.40;99.90
29413;DHT22;16389;50.126;8.450;2022-12-18T08:06:50;-6.30;99.90
29413;DHT22;16389;50.126;8.450;2022-12-18T08:09:16;-6.20;99.90
29413;DHT22;16389;50.126;8.450;2022-12-18T08:11:41;-6.10;99.90
29413;DHT22;16389;50.126;8.450;2022-12-18T08:14:07;-6.10;99.90
29413;DHT22;16389;50.126;8.450;2022-12-18T08:16:33;-6.10;99.90
29413;DHT22;16389;50.126;8.450;2022-12-18T08:18:58;-6.00;99.90
29413;DHT22;16389;50.126;8.450;2022-12-18T08:21:27;-5.90;99.90
29413;DHT22;16389;50.126;8.450;2022-12-18T08:23:55;-5.90;99.90
29413;DHT22;16389;50.126;8.450;2022-12-18T08:26:21;-5.80;99.90
29413;DHT22;16389;50.126;8.450;2022-12-18T08:28:47;-5.50;99.90
29413;DHT22;16389;50.126;8.450;2022-12-18T08:31:12;-5.40;99.90
29413;DHT22;16389;50.126;8.450;2022-12-18T08:33:40;-5.40;99.90
29413;DHT22;16389;50.126;8.450;2022-12-18T08:36:06;-5.30;99.90
29413;DHT22;16389;50.126;8.450;2022-12-18T08:38:32;-5.30;99.90
29413;DHT22;16389;50.126;8.450;2022-12-18T08:41:09;-5.20;99.90
29413;DHT22;16389;50.126;8.450;2022-12-18T08:43:35;-5.20;99.90
29413;DHT22;16389;50.126;8.450;2022-12-18T08:46:21;-5.10;99.90
29413;DHT22;16389;50.126;8.450;2022-12-18T08:48:47;-5.10;99.90
29413;DHT22;16389;50.126;8.450;2022-12-18T08:51:16;-5.00;99.90
29413;DHT22;16389;50.126;8.450;2022-12-18T08:53:42;-4.90;99.90
29413;DHT22;16389;50.126;8.450;2022-12-18T08:56:08;-4.80;99.90
29413;DHT22;16389;50.126;8.450;2022-12-18T08:58:34;-4.80;99.90
29413;DHT22;16389;50.126;8.450;2022-12-18T09:01:04;-4.70;99.90
29413;DHT22;16389;50.126;8.450;2022-12-18T09:03:30;-4.60;99.90
29413;DHT22;16389;50.126;8.450;2022-12-18T09:05:56;-4.60;99.90
29413;DHT22;16389;50.126;8.450;2022-12-18T09:08:22;-4.60;99.90
29413;DHT22;16389;50.126;8.450;2022-12-18T09:10:49;-4.60;99.90
29413;DHT22;16389;50.126;8.450;2022-12-18T09:13:16;-4.60;99.90
29413;DHT22;16389;50.126;8.450;2022-12-18T09:15:46;-4.60;99.90
29413;DHT22;16389;50.126;8.450;2022-12-18T09:18:14;-4.60;99.90
29413;DHT22;16389;50.126;8.450;2022-12-18T09:20:39;-4.60;99.90
29413;DHT22;16389;50.126;8.450;2022-12-18T09:23:06;-4.70;99.90
29413;DHT22;16389;50.126;8.450;2022-12-18T09:25:32;-4.70;99.90
29413;DHT22;16389;50.126;8.450;2022-12-18T09:28:16;-4.80;99.90
29413;DHT22;16389;50.126;8.450;2022-12-18T09:30:48;-4.70;99.90
29413;DHT22;16389;50.126;8.450;2022-12-18T09:33:15;-4.70;99.90
29413;DHT22;16389;50.126;8.450;2022-12-18T09:35:43;-4.60;99.90
29413;DHT22;16389;50.126;8.450;2022-12-18T09:38:12;-4.60;99.90
29413;DHT22;16389;50.126;8.450;2022-12-18T09:40:53;-4.50;99.90
29413;DHT22;16389;50.126;8.450;2022-12-18T09:43:36;-4.40;99.90
29413;DHT22;16389;50.126;8.450;2022-12-18T09:46:06;-4.40;99.90
29413;DHT22;16389;50.126;8.450;2022-12-18T09:48:40;-4.30;99.90
29413;DHT22;16389;50.126;8.450;2022-12-18T09:51:47;-4.10;99.90
29413;DHT22;16389;50.126;8.450;2022-12-18T09:54:33;-4.00;99.90
29413;DHT22;16389;50.126;8.450;2022-12-18T09:57:01;-3.80;99.90
29413;DHT22;16389;50.126;8.450;2022-12-18T09:59:37;-3.80;99.90
29413;DHT22;16389;50.126;8.450;2022-12-18T10:04:41;-3.70;99.90
29413;DHT22;16389;50.126;8.450;2022-12-18T10:07:22;-3.60;99.90
29413;DHT22;16389;50.126;8.450;2022-12-18T10:10:13;-3.60;99.90
29413;DHT22;16389;50.126;8.450;2022-12-18T10:13:17;-3.60;99.90
29413;DHT22;16389;50.126;8.450;2022-12-18T10:21:26;-3.40;99.90
29413;DHT22;16389;50.126;8.450;2022-12-18T10:24:10;-3.40;99.90
29413;DHT22;16389;50.126;8.450;2022-12-18T10:26:41;-3.40;99.90
29413;DHT22;16389;50.126;8.450;2022-12-18T10:29:12;-3.30;99.90
29413;DHT22;16389;50.126;8.450;2022-12-18T10:31:38;-3.10;99.90
29413;DHT22;16389;50.126;8.450;2022-12-18T10:34:08;-3.10;99.90
29413;DHT22;16389;50.126;8.450;2022-12-18T10:36:34;-3.00;99.90
29413;DHT22;16389;50.126;8.450;2022-12-18T10:39:21;-3.00;99.90
29413;DHT22;16389;50.126;8.450;2022-12-18T10:41:50;-3.00;99.90
29413;DHT22;16389;50.126;8.450;2022-12-18T10:44:21;-2.80;99.90
29413;DHT22;16389;50.126;8.450;2022-12-18T10:46:50;-2.80;99.90
29413;DHT22;16389;50.126;8.450;2022-12-18T10:49:27;-2.80;99.90
29413;DHT22;16389;50.126;8.450;2022-12-18T10:52:20;-2.70;99.90
29413;DHT22;16389;50.126;8.450;2022-12-18T10:54:51;-2.60;99.90
29413;DHT22;16389;50.126;8.450;2022-12-18T10:57:19;-2.50;99.90
29413;DHT22;16389;50.126;8.450;2022-12-18T10:59:56;-2.60;99.90
29413;DHT22;16389;50.126;8.450;2022-12-18T11:02:35;-2.50;99.90
29413;DHT22;16389;50.126;8.450;2022-12-18T11:05:02;-2.50;99.90
29413;DHT22;16389;50.126;8.450;2022-12-18T11:07:51;-2.50;99.90
29413;DHT22;16389;50.126;8.450;2022-12-18T11:10:21;-2.60;99.90
29413;DHT22;16389;50.126;8.450;2022-12-18T11:12:47;-2.50;99.90
29413;DHT22;16389;50.126;8.450;2022-12-18T11:15:33;-2.40;99.90
29413;DHT22;16389;50.126;8.450;2022-12-18T11:17:59;-2.40;99.90
29413;DHT22;16389;50.126;8.450;2022-12-18T11:20:34;-2.30;99.90
29413;DHT22;16389;50.126;8.450;2022-12-18T11:23:05;-2.30;99.90
29413;DHT22;16389;50.126;8.450;2022-12-18T11:25:36;-2.50;99.90
29413;DHT22;16389;50.126;8.450;2022-12-18T11:28:05;-2.60;99.90
29413;DHT22;16389;50.126;8.450;2022-12-18T11:30:35;-2.50;99.90
29413;DHT22;16389;50.126;8.450;2022-12-18T11:33:10;-2.60;99.90
29413;DHT22;16389;50.126;8.450;2022-12-18T11:35:52;-2.60;99.90
29413;DHT22;16389;50.126;8.450;2022-12-18T11:38:24;-2.60;99.90
29413;DHT22;16389;50.126;8.450;2022-12-18T11:41:28;-2.60;99.90
29413;DHT22;16389;50.126;8.450;2022-12-18T11:43:55;-2.70;99.90
29413;DHT22;16389;50.126;8.450;2022-12-18T11:46:32;-2.70;99.90
29413;DHT22;16389;50.126;8.450;2022-12-18T11:49:14;-2.80;99.90
29413;DHT22;16389;50.126;8.450;2022-12-18T11:51:58;-2.90;99.90
29413;DHT22;16389;50.126;8.450;2022-12-18T11:54:27;-2.80;99.90
29413;DHT22;16389;50.126;8.450;2022-12-18T11:57:00;-2.80;99.90
29413;DHT22;16389;50.126;8.450;2022-12-18T11:59:37;-2.80;99.90
29413;DHT22;16389;50.126;8.450;2022-12-18T12:04:45;-2.60;99.90
29413;DHT22;16389;50.126;8.450;2022-12-18T12:07:45;-2.70;99.90
29413;DHT22;16389;50.126;8.450;2022-12-18T12:10:30;-2.70;99.90
29413;DHT22;16389;50.126;8.450;2022-12-18T12:21:07;-2.50;99.90
29413;DHT22;16389;50.126;8.450;2022-12-18T12:26:49;-2.70;99.90
29413;DHT22;16389;50.126;8.450;2022-12-18T12:40:02;-2.80;99.90
29413;DHT22;16389;50.126;8.450;2022-12-18T12:42:35;-2.90;99.90
29413;DHT22;16389;50.126;8.450;2022-12-18T12:45:28;-2.80;99.90
29413;DHT22;16389;50.126;8.450;2022-12-18T12:47:59;-2.80;99.90
29413;DHT22;16389;50.126;8.450;2022-12-18T12:50:27;-2.80;99.90
29413;DHT22;16389;50.126;8.450;2022-12-18T12:52:55;-2.80;99.90
29413;DHT22;16389;50.126;8.450;2022-12-18T12:55:25;-2.80;99.90
29413;DHT22;16389;50.126;8.450;2022-12-18T12:58:06;-2.80;99.90
29413;DHT22;16389;50.126;8.450;2022-12-18T13:00:53;-2.90;99.90
29413;DHT22;16389;50.126;8.450;2022-12-18T13:08:54;-2.80;99.90
29413;DHT22;16389;50.126;8.450;2022-12-18T13:14:43;-3.00;99.90
29413;DHT22;16389;50.126;8.450;2022-12-18T13:20:10;-2.80;99.90
29413;DHT22;16389;50.126;8.450;2022-12-18T13:22:38;-2.80;99.90
29413;DHT22;16389;50.126;8.450;2022-12-18T13:25:31;-2.80;99.90
29413;DHT22;16389;50.126;8.450;2022-12-18T13:40:59;-2.70;99.90
29413;DHT22;16389;50.126;8.450;2022-12-18T13:43:39;-2.80;99.90
29413;DHT22;16389;50.126;8.450;2022-12-18T13:51:40;-2.70;99.90
29413;DHT22;16389;50.126;8.450;2022-12-18T13:56:47;-2.90;99.90
29413;DHT22;16389;50.126;8.450;2022-12-18T13:59:22;-3.00;99.90
29413;DHT22;16389;50.126;8.450;2022-12-18T14:01:54;-3.00;99.90
29413;DHT22;16389;50.126;8.450;2022-12-18T14:04:23;-2.90;99.90
29413;DHT22;16389;50.126;8.450;2022-12-18T14:06:52;-2.90;99.90
29413;DHT22;16389;50.126;8.450;2022-12-18T14:09:24;-2.90;99.90
29413;DHT22;16389;50.126;8.450;2022-12-18T14:11:51;-2.90;99.90
29413;DHT22;16389;50.126;8.450;2022-12-18T14:14:18;-2.80;99.90
29413;DHT22;16389;50.126;8.450;2022-12-18T14:16:45;-2.90;99.90
29413;DHT22;16389;50.126;8.450;2022-12-18T14:19:17;-2.90;99.90
29413;DHT22;16389;50.126;8.450;2022-12-18T14:21:50;-2.90;99.90
29413;DHT22;16389;50.126;8.450;2022-12-18T14:24:21;-2.90;99.90
29413;DHT22;16389;50.126;8.450;2022-12-18T14:26:48;-2.90;99.90
29413;DHT22;16389;50.126;8.450;2022-12-18T14:29:18;-3.00;99.90
29413;DHT22;16389;50.126;8.450;2022-12-18T14:31:44;-3.00;99.90
29413;DHT22;16389;50.126;8.450;2022-12-18T14:34:16;-3.00;99.90
29413;DHT22;16389;50.126;8.450;2022-12-18T14:36:52;-3.10;99.90
29413;DHT22;16389;50.126;8.450;2022-12-18T14:39:18;-3.10;99.90
29413;DHT22;16389;50.126;8.450;2022-12-18T14:41:44;-3.10;99.90
29413;DHT22;16389;50.126;8.450;2022-12-18T14:44:12;-3.20;99.90
29413;DHT22;16389;50.126;8.450;2022-12-18T14:46:49;-3.20;99.90
29413;DHT22;16389;50.126;8.450;2022-12-18T14:49:26;-3.20;99.90
29413;DHT22;16389;50.126;8.450;2022-12-18T14:51:56;-3.20;99.90
29413;DHT22;16389;50.126;8.450;2022-12-18T14:54:23;-3.20;99.90
29413;DHT22;16389;50.126;8.450;2022-12-18T14:56:53;-3.20;99.90
29413;DHT22;16389;50.126;8.450;2022-12-18T14:59:23;-3.30;99.90
29413;DHT22;16389;50.126;8.450;2022-12-18T15:04:44;-3.30;99.90
29413;DHT22;16389;50.126;8.450;2022-12-18T15:09:40;-3.30;99.90
29413;DHT22;16389;50.126;8.450;2022-12-18T15:12:22;-3.40;99.90
29413;DHT22;16389;50.126;8.450;2022-12-18T15:14:49;-3.50;99.90
29413;DHT22;16389;50.126;8.450;2022-12-18T15:17:21;-3.50;99.90
29413;DHT22;16389;50.126;8.450;2022-12-18T15:19:48;-3.50;99.90
29413;DHT22;16389;50.126;8.450;2022-12-18T15:22:35;-3.50;99.90
29413;DHT22;16389;50.126;8.450;2022-12-18T15:25:01;-3.50;99.90
29413;DHT22;16389;50.126;8.450;2022-12-18T15:27:33;-3.60;99.90
29413;DHT22;16389;50.126;8.450;2022-12-18T15:32:36;-3.60;99.90
29413;DHT22;16389;50.126;8.450;2022-12-18T15:35:15;-3.70;99.90
29413;DHT22;16389;50.126;8.450;2022-12-18T15:37:41;-3.70;99.90
29413;DHT22;16389;50.126;8.450;2022-12-18T15:40:12;-3.70;99.90
29413;DHT22;16389;50.126;8.450;2022-12-18T15:42:38;-3.70;99.90
29413;DHT22;16389;50.126;8.450;2022-12-18T15:45:22;-3.70;99.90
29413;DHT22;16389;50.126;8.450;2022-12-18T15:47:48;-3.70;99.90
29413;DHT22;16389;50.126;8.450;2022-12-18T15:50:13;-3.70;99.90
29413;DHT22;16389;50.126;8.450;2022-12-18T15:52:41;-3.70;99.90
29413;DHT22;16389;50.126;8.450;2022-12-18T15:55:19;-3.70;99.90
29413;DHT22;16389;50.126;8.450;2022-12-18T15:58:05;-3.70;99.90
29413;DHT22;16389;50.126;8.450;2022-12-18T16:00:32;-3.70;99.90
29413;DHT22;16389;50.126;8.450;2022-12-18T16:02:59;-3.70;99.90
29413;DHT22;16389;50.126;8.450;2022-12-18T16:05:26;-3.70;99.90
29413;DHT22;16389;50.126;8.450;2022-12-18T16:07:52;-3.70;99.90
29413;DHT22;16389;50.126;8.450;2022-12-18T16:10:18;-3.60;99.90
29413;DHT22;16389;50.126;8.450;2022-12-18T16:12:44;-3.60;99.90
29413;DHT22;16389;50.126;8.450;2022-12-18T16:15:12;-3.60;99.90
29413;DHT22;16389;50.126;8.450;2022-12-18T16:17:39;-3.60;99.90
29413;DHT22;16389;50.126;8.450;2022-12-18T16:20:07;-3.50;99.90
29413;DHT22;16389;50.126;8.450;2022-12-18T16:22:33;-3.50;99.90
29413;DHT22;16389;50.126;8.450;2022-12-18T16:24:59;-3.50;99.90
29413;DHT22;16389;50.126;8.450;2022-12-18T16:27:25;-3.50;99.90
29413;DHT22;16389;50.126;8.450;2022-12-18T16:29:50;-3.50;99.90
29413;DHT22;16389;50.126;8.450;2022-12-18T16:32:20;-3.50;99.90
29413;DHT22;16389;50.126;8.450;2022-12-18T16:34:46;-3.50;99.90
29413;DHT22;16389;50.126;8.450;2022-12-18T16:37:14;-3.50;99.90
29413;DHT22;16389;50.126;8.450;2022-12-18T16:39:41;-3.50;99.90
29413;DHT22;16389;50.126;8.450;2022-12-18T16:44:40;-3.50;99.90
29413;DHT22;16389;50.126;8.450;2022-12-18T16:47:05;-3.50;99.90
29413;DHT22;16389;50.126;8.450;2022-12-18T16:49:31;-3.50;99.90
29413;DHT22;16389;50.126;8.450;2022-12-18T16:51:56;-3.60;99.90
29413;DHT22;16389;50.126;8.450;2022-12-18T16:54:22;-3.70;99.90
29413;DHT22;16389;50.126;8.450;2022-12-18T16:56:50;-3.80;99.90
29413;DHT22;16389;50.126;8.450;2022-12-18T16:59:15;-3.80;99.90
29413;DHT22;16389;50.126;8.450;2022-12-18T17:01:41;-3.90;99.90
29413;DHT22;16389;50.126;8.450;2022-12-18T17:04:07;-4.00;99.90
29413;DHT22;16389;50.126;8.450;2022-12-18T17:06:35;-4.10;99.90
29413;DHT22;16389;50.126;8.450;2022-12-18T17:09:05;-4.10;99.90
29413;DHT22;16389;50.126;8.450;2022-12-18T17:11:33;-4.00;99.90
29413;DHT22;16389;50.126;8.450;2022-12-18T17:14:04;-4.10;99.90
29413;DHT22;16389;50.126;8.450;2022-12-18T17:16:30;-4.00;99.90
29413;DHT22;16389;50.126;8.450;2022-12-18T17:18:55;-4.10;99.90
29413;DHT22;16389;50.126;8.450;2022-12-18T17:21:21;-4.10;99.90
29413;DHT22;16389;50.126;8.450;2022-12-18T17:23:46;-4.10;99.90
29413;DHT22;16389;50.126;8.450;2022-12-18T17:26:14;-4.10;99.90
29413;DHT22;16389;50.126;8.450;2022-12-18T17:28:40;-4.10;99.90
29413;DHT22;16389;50.126;8.450;2022-12-18T17:31:16;-4.10;99.90
29413;DHT22;16389;50.126;8.450;2022-12-18T17:33:42;-4.10;99.90